createdAt,value
2022-12-29T00:00:21.981Z,41.22
2022-12-29T00:02:49.218Z,38.63
2022-12-29T00:05:16.591Z,44.38
2022-12-29T00:07:43.743Z,45.92
2022-12-29T00:10:11.021Z,105.30
2022-12-29T00:12:56.980Z,615.78
2022-12-29T00:15:39.344Z,447.80
2022-12-29T00:18:08.072Z,65.57
2022-12-29T00:20:55.462Z,51.80
2022-12-29T00:23:41.574Z,51.85
2022-12-29T00:26:36.365Z,53.42
2022-12-29T00:29:22.496Z,49.53
2022-12-29T00:32:08.216Z,53.03
2022-12-29T00:34:53.805Z,50.92
2022-12-29T00:37:41.011Z,51.95
2022-12-29T00:40:26.944Z,55.30
2022-12-29T00:43:12.495Z,50.92
2022-12-29T00:45:44.547Z,46.05
2022-12-29T00:48:11.620Z,51.25
2022-12-29T00:50:38.761Z,46.90
2022-12-29T00:53:05.993Z,39.67
2022-12-29T00:55:37.105Z,41.15
2022-12-29T00:58:04.338Z,45.53
2022-12-29T01:00:32.437Z,45.95
2022-12-29T01:02:59.793Z,49.35
2022-12-29T01:05:27.187Z,45.92
2022-12-29T01:07:54.482Z,49.53
2022-12-29T01:10:21.635Z,45.83
2022-12-29T01:12:50.322Z,41.40
2022-12-29T01:15:17.483Z,52.13
2022-12-29T01:17:45.528Z,54.63
2022-12-29T01:20:13.220Z,48.63
2022-12-29T01:22:43.676Z,41.30
2022-12-29T01:25:11.043Z,43.22
2022-12-29T01:27:40.074Z,44.75
2022-12-29T01:30:07.853Z,30.58
2022-12-29T01:32:35.040Z,28.38
2022-12-29T01:35:02.255Z,28.58
2022-12-29T01:37:29.402Z,33.17
2022-12-29T01:39:56.697Z,32.70
2022-12-29T01:42:27.252Z,34.25
2022-12-29T01:45:04.058Z,23.95
2022-12-29T01:47:34.714Z,26.15
2022-12-29T01:50:28.129Z,26.85
2022-12-29T01:53:13.815Z,27.08
2022-12-29T01:55:49.528Z,22.75
2022-12-29T01:58:20.708Z,27.92
2022-12-29T02:00:48.065Z,27.65
2022-12-29T02:03:17.612Z,29.02
2022-12-29T02:06:05.669Z,22.40
2022-12-29T02:08:32.882Z,27.27
2022-12-29T02:11:02.159Z,30.60
2022-12-29T02:13:30.031Z,31.35
2022-12-29T02:16:00.044Z,28.63
2022-12-29T02:19:18.003Z,26.42
2022-12-29T02:21:51.086Z,24.08
2022-12-29T02:27:23.171Z,27.70
2022-12-29T02:30:13.398Z,30.67
2022-12-29T02:33:06.382Z,23.88
2022-12-29T02:35:51.259Z,25.37
2022-12-29T02:38:37.256Z,29.10
2022-12-29T02:41:14.032Z,28.50
2022-12-29T02:43:52.243Z,23.92
2022-12-29T02:46:55.666Z,28.65
2022-12-29T02:49:41.098Z,29.70
2022-12-29T02:52:17.865Z,23.55
2022-12-29T02:54:45.675Z,27.35
2022-12-29T03:00:25.848Z,22.40
2022-12-29T03:03:02.231Z,25.20
2022-12-29T03:05:54.658Z,22.73
2022-12-29T03:09:06.259Z,23.98
2022-12-29T03:12:08.938Z,21.73
2022-12-29T03:15:24.358Z,27.85
2022-12-29T03:18:06.790Z,20.95
2022-12-29T03:20:53.699Z,23.17
2022-12-29T03:23:22.595Z,24.85
2022-12-29T03:28:54.288Z,21.23
2022-12-29T03:31:26.312Z,24.30
2022-12-29T03:33:56.760Z,22.83
2022-12-29T03:36:34.930Z,25.60
2022-12-29T03:39:12.917Z,24.08
2022-12-29T03:41:44.015Z,21.73
2022-12-29T03:44:13.753Z,24.92
2022-12-29T03:46:41.669Z,28.23
2022-12-29T03:49:09.424Z,27.60
2022-12-29T03:51:36.677Z,27.83
2022-12-29T03:54:06.143Z,24.23
2022-12-29T03:56:33.956Z,229.43
2022-12-29T03:59:03.507Z,107.60
2022-12-29T04:01:35.748Z,36.50
2022-12-29T04:04:03.251Z,31.25
2022-12-29T04:06:30.390Z,23.85
2022-12-29T04:09:04.513Z,34.90
2022-12-29T04:11:35.690Z,27.08
2022-12-29T04:14:04.499Z,36.35
2022-12-29T04:16:36.700Z,30.65
2022-12-29T04:19:08.800Z,31.58
2022-12-29T04:21:37.517Z,27.25
2022-12-29T04:24:07.656Z,37.63
2022-12-29T04:26:39.555Z,36.28
2022-12-29T04:29:26.909Z,28.42
2022-12-29T04:32:06.211Z,28.38
2022-12-29T04:34:35.989Z,33.42
2022-12-29T04:37:03.089Z,31.42
2022-12-29T04:39:30.375Z,31.42
2022-12-29T04:41:58.119Z,30.23
2022-12-29T04:44:26.286Z,30.65
2022-12-29T04:46:59.502Z,33.33
2022-12-29T04:49:40.274Z,38.78
2022-12-29T04:52:24.890Z,33.83
2022-12-29T04:54:53.197Z,37.30
2022-12-29T04:57:21.845Z,41.38
2022-12-29T04:59:53.419Z,42.25
2022-12-29T05:02:20.720Z,47.97
2022-12-29T05:04:50.556Z,43.58
2022-12-29T05:07:18.532Z,46.35
2022-12-29T05:09:46.127Z,39.00
2022-12-29T05:12:13.298Z,42.90
2022-12-29T05:14:48.555Z,46.20
2022-12-29T05:17:15.877Z,57.20
2022-12-29T05:19:43.293Z,43.38
2022-12-29T05:22:10.484Z,46.03
2022-12-29T05:24:38.697Z,41.00
2022-12-29T05:27:06.471Z,45.05
2022-12-29T05:29:41.385Z,63.17
2022-12-29T05:32:09.255Z,50.05
2022-12-29T05:34:36.621Z,64.35
2022-12-29T05:37:03.992Z,48.28
2022-12-29T05:39:31.206Z,62.88
2022-12-29T05:42:01.434Z,66.10
2022-12-29T05:44:38.425Z,63.03
2022-12-29T05:47:14.881Z,65.85
2022-12-29T05:49:52.719Z,64.57
2022-12-29T05:52:28.421Z,51.88
2022-12-29T05:54:55.872Z,60.55
2022-12-29T05:57:24.619Z,53.25
2022-12-29T06:00:00.813Z,50.42
2022-12-29T06:02:28.368Z,54.92
2022-12-29T06:04:55.833Z,48.53
2022-12-29T06:07:23.709Z,56.03
2022-12-29T06:09:51.085Z,69.70
2022-12-29T06:12:18.570Z,63.45
2022-12-29T06:14:49.273Z,73.43
2022-12-29T06:17:17.283Z,77.60
2022-12-29T06:19:45.194Z,79.13
2022-12-29T06:22:13.502Z,74.35
2022-12-29T06:24:42.311Z,82.93
2022-12-29T06:27:09.608Z,72.90
2022-12-29T06:29:38.220Z,68.78
2022-12-29T06:32:05.746Z,65.13
2022-12-29T06:34:34.265Z,72.38
2022-12-29T06:37:02.436Z,87.57
2022-12-29T06:39:29.704Z,102.40
2022-12-29T06:42:04.994Z,127.90
2022-12-29T06:45:11.292Z,151.65
2022-12-29T06:47:38.626Z,127.05
2022-12-29T06:50:06.330Z,123.15
2022-12-29T06:52:33.604Z,148.00
2022-12-29T06:55:01.235Z,739.47
2022-12-29T06:57:28.666Z,452.60
2022-12-29T06:59:56.962Z,146.98
2022-12-29T07:02:26.401Z,122.80
2022-12-29T07:04:54.297Z,116.22
2022-12-29T07:07:21.864Z,97.75
2022-12-29T07:09:49.199Z,87.03
2022-12-29T07:12:16.379Z,78.05
2022-12-29T07:14:44.583Z,87.35
2022-12-29T07:17:11.943Z,76.10
2022-12-29T07:19:39.128Z,75.43
2022-12-29T07:22:06.404Z,74.47
2022-12-29T07:24:33.458Z,91.38
2022-12-29T07:27:00.487Z,86.57
2022-12-29T07:29:27.689Z,75.82
2022-12-29T07:31:54.924Z,75.60
2022-12-29T07:34:22.152Z,83.18
2022-12-29T07:36:49.247Z,68.45
2022-12-29T07:39:16.448Z,84.88
2022-12-29T07:41:43.957Z,82.07
2022-12-29T07:44:17.474Z,69.57
2022-12-29T07:46:57.839Z,80.40
2022-12-29T07:49:26.350Z,62.47
2022-12-29T07:51:53.659Z,62.83
2022-12-29T07:54:21.108Z,382.92
2022-12-29T07:56:48.275Z,90.93
2022-12-29T07:59:15.473Z,107.85
2022-12-29T08:01:42.761Z,83.28
2022-12-29T08:04:28.545Z,83.68
2022-12-29T08:06:55.618Z,68.00
2022-12-29T08:09:24.275Z,57.05
2022-12-29T08:11:52.086Z,69.28
2022-12-29T08:14:19.565Z,62.08
2022-12-29T08:16:47.109Z,49.95
2022-12-29T08:19:14.812Z,51.90
2022-12-29T08:21:42.124Z,49.38
2022-12-29T08:24:09.777Z,51.83
2022-12-29T08:26:37.061Z,51.30
2022-12-29T08:29:04.188Z,62.00
2022-12-29T08:31:31.491Z,62.83
2022-12-29T08:33:58.639Z,62.17
2022-12-29T08:36:25.909Z,72.65
2022-12-29T08:38:53.427Z,72.03
2022-12-29T08:41:20.549Z,68.40
2022-12-29T08:43:48.517Z,68.22
2022-12-29T08:46:16.707Z,66.95
2022-12-29T08:48:44.085Z,79.25
2022-12-29T08:51:11.443Z,74.13
2022-12-29T08:53:38.945Z,204.63
2022-12-29T08:56:06.673Z,106.10
2022-12-29T08:58:43.828Z,64.90
2022-12-29T09:01:12.182Z,63.78
2022-12-29T09:04:13.611Z,71.72
2022-12-29T09:06:26.680Z,64.28
2022-12-29T09:08:56.043Z,63.30
2022-12-29T09:11:25.346Z,69.45
2022-12-29T09:13:53.809Z,79.15
2022-12-29T09:16:23.977Z,71.20
2022-12-29T09:18:51.828Z,64.88
2022-12-29T09:21:37.467Z,65.68
2022-12-29T09:24:05.255Z,81.80
2022-12-29T09:26:32.506Z,85.80
2022-12-29T09:28:59.796Z,81.40
2022-12-29T09:31:27.165Z,75.47
2022-12-29T09:33:54.434Z,74.32
2022-12-29T09:36:21.567Z,71.13
2022-12-29T09:38:48.692Z,86.03
2022-12-29T09:41:26.244Z,68.30
2022-12-29T09:44:02.020Z,79.20
2022-12-29T09:46:35.773Z,67.40
2022-12-29T09:49:25.745Z,63.45
2022-12-29T09:52:04.788Z,75.80
2022-12-29T09:55:00.513Z,66.80
2022-12-29T09:57:41.073Z,64.57
2022-12-29T10:00:18.213Z,68.72
2022-12-29T10:02:50.448Z,62.55
2022-12-29T10:06:07.353Z,63.47
2022-12-29T10:08:53.122Z,64.35
2022-12-29T10:11:42.313Z,323.15
2022-12-29T10:14:44.517Z,99.43
2022-12-29T10:17:42.241Z,57.40
2022-12-29T10:20:31.364Z,56.58
2022-12-29T10:23:26.191Z,66.88
2022-12-29T10:25:57.601Z,66.72
2022-12-29T10:28:41.457Z,67.00
2022-12-29T10:31:21.025Z,75.97
2022-12-29T10:33:53.260Z,61.35
2022-12-29T10:36:39.851Z,61.10
2022-12-29T10:39:36.412Z,71.55
2022-12-29T10:42:26.919Z,74.30
2022-12-29T10:44:57.000Z,66.60
2022-12-29T10:47:27.927Z,70.30
2022-12-29T10:49:55.416Z,67.90
2022-12-29T10:52:24.540Z,76.82
2022-12-29T10:55:00.669Z,71.57
2022-12-29T10:57:33.787Z,60.97
2022-12-29T11:00:01.254Z,57.30
2022-12-29T11:02:31.644Z,58.10
2022-12-29T11:05:08.732Z,61.28
2022-12-29T11:07:36.651Z,62.45
2022-12-29T11:10:30.856Z,72.72
2022-12-29T11:13:12.096Z,67.68
2022-12-29T11:15:43.813Z,77.53
2022-12-29T11:18:26.087Z,70.72
2022-12-29T11:21:02.262Z,65.85
2022-12-29T11:23:35.563Z,60.00
2022-12-29T11:26:11.840Z,63.30
2022-12-29T11:28:40.214Z,64.25
2022-12-29T11:31:09.219Z,64.45
2022-12-29T11:33:38.407Z,62.47
2022-12-29T11:36:12.154Z,58.03
2022-12-29T11:38:47.051Z,74.40
2022-12-29T11:41:20.935Z,71.88
2022-12-29T11:43:48.726Z,63.95
2022-12-29T11:46:20.726Z,169.05
2022-12-29T11:48:49.063Z,117.80
2022-12-29T11:51:29.721Z,48.20
2022-12-29T11:54:03.890Z,47.50
2022-12-29T11:56:44.931Z,49.35
2022-12-29T11:59:37.551Z,57.00
2022-12-29T12:02:38.755Z,58.05
2022-12-29T12:05:55.373Z,56.75
2022-12-29T12:08:34.753Z,65.18
2022-12-29T12:11:23.689Z,68.30
2022-12-29T12:14:02.374Z,70.88
2022-12-29T12:16:54.440Z,70.68
2022-12-29T12:19:27.561Z,70.57
2022-12-29T12:22:19.915Z,62.35
2022-12-29T12:25:04.273Z,61.65
2022-12-29T12:27:43.211Z,61.60
2022-12-29T12:30:24.074Z,64.47
2022-12-29T12:33:00.808Z,60.65
2022-12-29T12:35:40.303Z,72.93
2022-12-29T12:38:32.427Z,62.90
2022-12-29T12:41:21.865Z,55.22
2022-12-29T12:44:03.584Z,60.60
2022-12-29T12:47:05.483Z,51.67
2022-12-29T12:49:54.107Z,56.78
2022-12-29T12:52:32.413Z,49.63
2022-12-29T12:55:18.524Z,45.30
2022-12-29T12:58:06.666Z,49.95
2022-12-29T13:00:48.168Z,53.97
2022-12-29T13:03:23.013Z,47.45
2022-12-29T13:06:13.813Z,51.83
2022-12-29T13:08:57.410Z,48.67
2022-12-29T13:11:49.601Z,57.13
2022-12-29T13:14:36.440Z,47.60
2022-12-29T13:17:22.404Z,56.75
2022-12-29T13:20:06.381Z,52.63
2022-12-29T13:22:36.347Z,48.15
2022-12-29T13:25:23.599Z,50.17
2022-12-29T13:28:13.872Z,51.60
2022-12-29T13:30:40.970Z,53.38
2022-12-29T13:33:33.423Z,49.40
2022-12-29T13:36:03.574Z,50.72
2022-12-29T13:38:39.518Z,56.33
2022-12-29T13:41:19.020Z,53.05
2022-12-29T13:43:49.110Z,45.45
2022-12-29T13:46:34.946Z,39.08
2022-12-29T13:49:11.675Z,51.20
2022-12-29T13:51:45.546Z,71.18
2022-12-29T13:54:24.852Z,47.50
2022-12-29T13:57:33.559Z,45.00
2022-12-29T14:00:19.320Z,84.82
2022-12-29T14:02:46.646Z,136.43
2022-12-29T14:05:19.942Z,101.05
2022-12-29T14:07:48.032Z,55.10
2022-12-29T14:10:36.322Z,48.47
2022-12-29T14:13:05.385Z,74.60
2022-12-29T14:15:32.906Z,96.47
2022-12-29T14:18:12.567Z,81.45
2022-12-29T14:21:03.091Z,71.50
2022-12-29T14:23:36.961Z,82.13
2022-12-29T14:26:07.108Z,63.97
2022-12-29T14:28:36.993Z,51.72
2022-12-29T14:31:06.120Z,48.53
2022-12-29T14:33:35.199Z,87.22
2022-12-29T14:36:34.596Z,104.72
2022-12-29T14:39:02.210Z,90.47
2022-12-29T14:41:36.676Z,85.20
2022-12-29T14:44:21.840Z,79.47
2022-12-29T14:46:55.143Z,62.95
2022-12-29T14:51:55.022Z,70.70
2022-12-29T14:54:34.497Z,70.85
2022-12-29T14:57:04.938Z,72.90
2022-12-29T14:59:34.174Z,63.78
2022-12-29T15:02:05.525Z,81.05
2022-12-29T15:04:35.898Z,76.40
2022-12-29T15:07:10.216Z,70.80
2022-12-29T15:09:43.936Z,88.05
2022-12-29T15:12:36.682Z,70.65
2022-12-29T15:15:19.148Z,63.17
2022-12-29T15:17:46.712Z,64.05
2022-12-29T15:20:33.218Z,63.80
2022-12-29T15:23:17.112Z,95.70
2022-12-29T15:26:08.894Z,565.35
2022-12-29T15:28:47.406Z,361.20
2022-12-29T15:31:32.612Z,144.95
2022-12-29T15:34:11.724Z,190.30
2022-12-29T15:36:41.516Z,137.15
2022-12-29T15:39:41.946Z,108.90
2022-12-29T15:42:27.608Z,90.13
2022-12-29T15:45:09.560Z,86.55
2022-12-29T15:47:39.021Z,95.22
2022-12-29T15:50:09.626Z,108.25
2022-12-29T15:52:40.914Z,120.57
2022-12-29T15:55:22.772Z,106.53
2022-12-29T15:57:50.046Z,141.43
2022-12-29T16:00:34.851Z,132.60
2022-12-29T16:03:05.375Z,135.43
2022-12-29T16:05:34.891Z,148.07
2022-12-29T16:08:03.018Z,183.73
2022-12-29T16:10:43.512Z,174.77
2022-12-29T16:13:20.265Z,185.60
2022-12-29T16:15:49.531Z,200.88
2022-12-29T16:18:30.056Z,211.02
2022-12-29T16:20:58.444Z,222.20
2022-12-29T16:23:29.992Z,225.40
2022-12-29T16:25:58.991Z,215.35
2022-12-29T16:28:36.743Z,250.68
2022-12-29T16:31:06.845Z,262.33
2022-12-29T16:33:48.915Z,273.48
2022-12-29T16:36:26.467Z,248.55
2022-12-29T16:39:22.170Z,248.98
2022-12-29T16:41:50.331Z,217.40
2022-12-29T16:44:29.591Z,213.65
2022-12-29T16:47:12.036Z,220.98
2022-12-29T16:49:42.952Z,236.40
2022-12-29T16:52:18.814Z,253.52
2022-12-29T16:54:53.853Z,274.77
2022-12-29T16:57:27.765Z,297.23
2022-12-29T16:59:58.732Z,301.73
2022-12-29T17:02:29.605Z,326.42
2022-12-29T17:04:57.118Z,299.48
2022-12-29T17:07:27.264Z,295.27
2022-12-29T17:09:55.277Z,265.67
2022-12-29T17:12:30.184Z,273.35
2022-12-29T17:15:01.297Z,271.23
2022-12-29T17:17:36.394Z,350.42
2022-12-29T17:20:16.775Z,397.15
2022-12-29T17:22:44.449Z,356.02
2022-12-29T17:25:21.901Z,314.63
2022-12-29T17:27:54.402Z,300.10
2022-12-29T17:30:28.427Z,285.43
2022-12-29T17:33:09.159Z,258.27
2022-12-29T17:35:36.690Z,222.32
2022-12-29T17:38:21.461Z,200.57
2022-12-29T17:40:49.049Z,187.35
2022-12-29T17:43:16.980Z,206.77
2022-12-29T17:45:48.203Z,203.60
2022-12-29T17:48:18.024Z,172.13
2022-12-29T17:50:47.858Z,170.80
2022-12-29T17:53:17.318Z,152.88
2022-12-29T17:55:44.516Z,157.43
2022-12-29T17:58:18.934Z,138.63
2022-12-29T18:00:48.364Z,140.65
2022-12-29T18:03:23.334Z,140.07
2022-12-29T18:05:50.630Z,141.85
2022-12-29T18:08:17.964Z,131.68
2022-12-29T18:10:46.008Z,723.47
2022-12-29T18:13:33.713Z,260.08
2022-12-29T18:16:11.757Z,135.88
2022-12-29T18:18:38.854Z,144.45
2022-12-29T18:21:06.631Z,143.95
2022-12-29T18:23:36.918Z,164.63
2022-12-29T18:26:17.735Z,190.10
2022-12-29T18:28:49.536Z,226.65
2022-12-29T18:31:33.900Z,363.55
2022-12-29T18:34:07.263Z,292.90
2022-12-29T18:36:34.502Z,233.98
2022-12-29T18:39:01.607Z,280.08
2022-12-29T18:41:32.057Z,313.60
2022-12-29T18:44:00.143Z,307.38
2022-12-29T18:46:27.572Z,309.70
2022-12-29T18:48:54.939Z,290.25
2022-12-29T18:51:24.612Z,246.77
2022-12-29T18:53:54.459Z,262.83
2022-12-29T18:56:23.070Z,217.05
2022-12-29T18:58:51.661Z,206.02
2022-12-29T19:01:21.756Z,186.63
2022-12-29T19:03:49.884Z,239.27
2022-12-29T19:06:17.545Z,264.42
2022-12-29T19:08:45.627Z,232.70
2022-12-29T19:11:12.967Z,131.95
2022-12-29T19:13:40.657Z,88.75
2022-12-29T19:16:17.208Z,82.10
2022-12-29T19:18:47.470Z,69.70
2022-12-29T19:21:22.733Z,73.60
2022-12-29T19:23:50.179Z,77.13
2022-12-29T19:26:31.965Z,86.50
2022-12-29T19:29:00.093Z,89.65
2022-12-29T19:31:27.550Z,167.13
2022-12-29T19:33:55.044Z,107.95
2022-12-29T19:36:22.657Z,107.60
2022-12-29T19:38:50.349Z,111.13
2022-12-29T19:41:17.693Z,561.85
2022-12-29T19:43:44.890Z,361.75
2022-12-29T19:46:16.499Z,140.52
2022-12-29T19:48:44.069Z,114.20
2022-12-29T19:51:17.336Z,134.75
2022-12-29T19:53:48.052Z,120.05
2022-12-29T19:56:15.426Z,128.13
2022-12-29T19:58:47.302Z,151.55
2022-12-29T20:01:20.935Z,172.37
2022-12-29T20:06:16.814Z,178.73
2022-12-29T20:08:44.300Z,174.75
2022-12-29T20:11:17.668Z,184.30
2022-12-29T20:16:16.949Z,162.27
2022-12-29T20:18:44.585Z,158.95
2022-12-29T20:21:15.105Z,138.40
2022-12-29T20:23:43.700Z,139.70
2022-12-29T20:26:20.295Z,133.27
2022-12-29T20:28:47.897Z,148.18
2022-12-29T20:31:25.996Z,158.80
2022-12-29T20:33:54.249Z,141.07
2022-12-29T20:36:24.773Z,131.43
2022-12-29T20:38:54.552Z,118.95
2022-12-29T20:41:23.044Z,113.72
2022-12-29T20:43:50.786Z,142.07
2022-12-29T20:46:21.367Z,158.48
2022-12-29T20:48:50.710Z,152.73
2022-12-29T20:51:18.708Z,151.95
2022-12-29T20:53:46.113Z,193.88
2022-12-29T20:56:20.147Z,199.25
2022-12-29T20:59:25.343Z,212.93
2022-12-29T21:01:36.888Z,316.92
2022-12-29T21:04:05.970Z,199.13
2022-12-29T21:06:36.152Z,115.15
2022-12-29T21:09:04.518Z,124.28
2022-12-29T21:11:31.983Z,130.90
2022-12-29T21:14:01.458Z,120.30
2022-12-29T21:16:29.084Z,126.15
2022-12-29T21:18:56.497Z,107.13
2022-12-29T21:21:25.485Z,104.10
2022-12-29T21:23:53.273Z,127.05
2022-12-29T21:26:23.128Z,119.35
2022-12-29T21:28:51.417Z,107.68
2022-12-29T21:31:33.609Z,134.73
2022-12-29T21:34:01.971Z,123.93
2022-12-29T21:36:29.687Z,80.00
2022-12-29T21:38:58.335Z,75.22
2022-12-29T21:41:25.955Z,84.82
2022-12-29T21:44:12.249Z,78.50
2022-12-29T21:46:42.131Z,93.07
2022-12-29T21:49:09.555Z,90.15
2022-12-29T21:51:53.987Z,85.10
2022-12-29T21:54:43.746Z,109.00
2022-12-29T21:57:16.577Z,116.68
2022-12-29T22:00:07.099Z,119.85
2022-12-29T22:02:55.077Z,122.30
2022-12-29T22:05:40.775Z,134.48
2022-12-29T22:08:26.581Z,135.82
2022-12-29T22:11:12.117Z,130.02
2022-12-29T22:13:39.720Z,142.25
2022-12-29T22:16:12.366Z,139.43
2022-12-29T22:18:39.788Z,123.72
2022-12-29T22:21:08.823Z,123.93
2022-12-29T22:23:39.373Z,137.07
2022-12-29T22:26:08.867Z,137.52
2022-12-29T22:28:38.106Z,179.68
2022-12-29T22:31:07.062Z,166.13
2022-12-29T22:33:34.318Z,158.63
2022-12-29T22:36:01.623Z,162.35
2022-12-29T22:38:28.857Z,163.30
2022-12-29T22:41:00.586Z,151.77
2022-12-29T22:43:30.040Z,135.70
2022-12-29T22:46:04.843Z,150.05
2022-12-29T22:48:33.322Z,145.07
2022-12-29T22:51:01.187Z,150.40
2022-12-29T22:53:28.326Z,147.90
2022-12-29T22:56:05.878Z,163.98
2022-12-29T22:58:33.425Z,158.57
2022-12-29T23:01:01.008Z,193.60
2022-12-29T23:03:28.674Z,185.40
2022-12-29T23:06:00.181Z,181.13
2022-12-29T23:08:30.913Z,172.27
2022-12-29T23:10:58.054Z,158.95
2022-12-29T23:13:25.289Z,165.45
2022-12-29T23:15:52.512Z,160.20
2022-12-29T23:18:19.585Z,164.60
2022-12-29T23:20:49.052Z,171.00
2022-12-29T23:23:48.121Z,172.55
2022-12-29T23:26:17.381Z,177.98
2022-12-29T23:28:44.879Z,188.23
2022-12-29T23:31:12.240Z,166.05
2022-12-29T23:33:39.487Z,164.85
2022-12-29T23:36:07.516Z,178.05
2022-12-29T23:38:35.018Z,177.38
2022-12-29T23:41:02.090Z,156.68
2022-12-29T23:43:29.281Z,156.60
2022-12-29T23:45:56.456Z,140.27
2022-12-29T23:48:23.560Z,158.48
2022-12-29T23:50:51.148Z,182.93
2022-12-29T23:53:18.431Z,165.85
2022-12-29T23:55:53.571Z,153.82
2022-12-29T23:58:20.717Z,147.95
